RYY weather

Cobb County-Mc Collum Field
Atlanta, Georgia, United States

Public forecast

Using degrees Fahrenheit for public forecast. Weather courtesy of forecast.io.

Current aviation weather report (METAR) for Cobb County-Mc Collum Field

Retrieved 2019/10/18 06:50 UTC (45 minutes ago):

KRYY 180650Z AUTO 23003KT 10SM CLR 07/04 A2999 RMK AO2 SLP879 T00720039

Aviation forecast (TAF) for Cobb County-Mc Collum Field

Retrieved 2019/10/18 06:24 UTC (1 hour ago):

TAF KRYY 180521Z 1806/1906 VRB03KT P6SM FEW250 FM181100 04004KT P6SM FEW250 FM181600 10007KT P6SM FEW250 FM190000 10006KT P6SM SCT250